sensor_id;sensor_type;location;lat;lon;timestamp;temperature;humidity
1678;DHT22;6034;46.864;15.216;2023-03-23T06:03:46;10.30;99.90
1678;DHT22;6034;46.864;15.216;2023-03-23T06:06:17;10.60;99.90
1678;DHT22;6034;46.864;15.216;2023-03-23T06:08:45;10.70;99.90
1678;DHT22;6034;46.864;15.216;2023-03-23T06:11:14;10.70;99.90
1678;DHT22;6034;46.864;15.216;2023-03-23T06:13:41;10.80;99.90
1678;DHT22;6034;46.864;15.216;2023-03-23T06:16:10;10.80;99.90
1678;DHT22;6034;46.864;15.216;2023-03-23T06:18:37;10.80;99.90
1678;DHT22;6034;46.864;15.216;2023-03-23T06:21:07;10.50;99.90
1678;DHT22;6034;46.864;15.216;2023-03-23T06:23:35;10.60;99.90
1678;DHT22;6034;46.864;15.216;2023-03-23T06:26:05;10.80;99.90
1678;DHT22;6034;46.864;15.216;2023-03-23T06:28:34;10.90;99.90
1678;DHT22;6034;46.864;15.216;2023-03-23T06:31:02;10.90;99.90
1678;DHT22;6034;46.864;15.216;2023-03-23T06:33:32;10.70;99.90
1678;DHT22;6034;46.864;15.216;2023-03-23T06:36:00;10.80;99.90
1678;DHT22;6034;46.864;15.216;2023-03-23T06:38:30;11.00;99.90
1678;DHT22;6034;46.864;15.216;2023-03-23T06:40:57;11.20;99.90
1678;DHT22;6034;46.864;15.216;2023-03-23T06:43:24;11.30;99.90
1678;DHT22;6034;46.864;15.216;2023-03-23T06:45:52;11.30;99.90
1678;DHT22;6034;46.864;15.216;2023-03-23T06:48:19;11.50;99.90
1678;DHT22;6034;46.864;15.216;2023-03-23T06:50:46;11.60;99.90
1678;DHT22;6034;46.864;15.216;2023-03-23T06:53:14;11.70;99.90
1678;DHT22;6034;46.864;15.216;2023-03-23T06:55:44;11.80;99.90
1678;DHT22;6034;46.864;15.216;2023-03-23T06:58:12;11.80;99.90
1678;DHT22;6034;46.864;15.216;2023-03-23T07:00:39;11.90;99.90
1678;DHT22;6034;46.864;15.216;2023-03-23T07:03:07;12.00;99.90
1678;DHT22;6034;46.864;15.216;2023-03-23T07:05:35;12.10;99.90
1678;DHT22;6034;46.864;15.216;2023-03-23T07:08:02;12.20;99.90
1678;DHT22;6034;46.864;15.216;2023-03-23T07:10:30;12.40;99.90
1678;DHT22;6034;46.864;15.216;2023-03-23T07:12:59;12.50;99.90
1678;DHT22;6034;46.864;15.216;2023-03-23T07:15:26;12.70;99.90
1678;DHT22;6034;46.864;15.216;2023-03-23T07:17:53;12.80;99.90
1678;DHT22;6034;46.864;15.216;2023-03-23T07:20:21;12.90;99.90
1678;DHT22;6034;46.864;15.216;2023-03-23T07:22:48;12.90;99.90
1678;DHT22;6034;46.864;15.216;2023-03-23T07:25:16;12.80;99.90
1678;DHT22;6034;46.864;15.216;2023-03-23T07:27:44;12.90;99.90
1678;DHT22;6034;46.864;15.216;2023-03-23T07:30:17;12.80;99.90
1678;DHT22;6034;46.864;15.216;2023-03-23T07:32:48;12.80;99.90
1678;DHT22;6034;46.864;15.216;2023-03-23T07:35:18;12.90;99.90
1678;DHT22;6034;46.864;15.216;2023-03-23T07:37:46;12.90;99.90
1678;DHT22;6034;46.864;15.216;2023-03-23T07:40:17;13.30;99.90
1678;DHT22;6034;46.864;15.216;2023-03-23T07:42:46;13.30;99.90
1678;DHT22;6034;46.864;15.216;2023-03-23T07:45:19;13.50;99.90
1678;DHT22;6034;46.864;15.216;2023-03-23T07:47:56;13.50;99.90
1678;DHT22;6034;46.864;15.216;2023-03-23T07:50:24;13.40;99.90
1678;DHT22;6034;46.864;15.216;2023-03-23T07:52:54;13.30;99.90
1678;DHT22;6034;46.864;15.216;2023-03-23T07:55:22;13.40;99.90
1678;DHT22;6034;46.864;15.216;2023-03-23T07:57:51;13.30;99.90
1678;DHT22;6034;46.864;15.216;2023-03-23T08:00:22;13.60;99.90
1678;DHT22;6034;46.864;15.216;2023-03-23T08:02:51;13.70;99.90
1678;DHT22;6034;46.864;15.216;2023-03-23T08:05:20;13.80;99.90
1678;DHT22;6034;46.864;15.216;2023-03-23T08:07:48;13.90;99.90
1678;DHT22;6034;46.864;15.216;2023-03-23T08:10:16;14.00;99.90
1678;DHT22;6034;46.864;15.216;2023-03-23T08:12:44;14.10;99.90
1678;DHT22;6034;46.864;15.216;2023-03-23T08:15:13;14.10;99.90
1678;DHT22;6034;46.864;15.216;2023-03-23T08:17:43;14.10;99.90
1678;DHT22;6034;46.864;15.216;2023-03-23T08:20:11;14.20;99.90
1678;DHT22;6034;46.864;15.216;2023-03-23T08:22:40;14.20;99.90
1678;DHT22;6034;46.864;15.216;2023-03-23T08:25:10;14.30;99.90
1678;DHT22;6034;46.864;15.216;2023-03-23T08:27:38;14.20;99.90
1678;DHT22;6034;46.864;15.216;2023-03-23T08:30:11;14.20;99.90
1678;DHT22;6034;46.864;15.216;2023-03-23T08:32:39;14.30;99.90
1678;DHT22;6034;46.864;15.216;2023-03-23T08:35:09;14.30;99.90
1678;DHT22;6034;46.864;15.216;2023-03-23T08:37:38;14.40;99.90
1678;DHT22;6034;46.864;15.216;2023-03-23T08:40:09;14.50;99.90
1678;DHT22;6034;46.864;15.216;2023-03-23T08:42:36;14.60;99.90
1678;DHT22;6034;46.864;15.216;2023-03-23T08:45:06;14.70;99.90
1678;DHT22;6034;46.864;15.216;2023-03-23T08:47:34;15.20;99.90
1678;DHT22;6034;46.864;15.216;2023-03-23T08:50:02;15.00;99.90
1678;DHT22;6034;46.864;15.216;2023-03-23T08:52:31;15.10;99.90
1678;DHT22;6034;46.864;15.216;2023-03-23T08:54:58;15.20;99.90
1678;DHT22;6034;46.864;15.216;2023-03-23T08:57:26;15.20;99.90
1678;DHT22;6034;46.864;15.216;2023-03-23T08:59:55;15.40;99.90
1678;DHT22;6034;46.864;15.216;2023-03-23T09:02:26;15.50;99.90
1678;DHT22;6034;46.864;15.216;2023-03-23T09:04:53;15.50;99.90
1678;DHT22;6034;46.864;15.216;2023-03-23T09:07:21;15.70;99.90
1678;DHT22;6034;46.864;15.216;2023-03-23T09:09:51;15.80;99.90
1678;DHT22;6034;46.864;15.216;2023-03-23T09:12:18;16.00;99.90
1678;DHT22;6034;46.864;15.216;2023-03-23T09:14:46;15.90;99.90
1678;DHT22;6034;46.864;15.216;2023-03-23T09:17:13;15.90;99.90
1678;DHT22;6034;46.864;15.216;2023-03-23T09:19:40;16.10;99.90
1678;DHT22;6034;46.864;15.216;2023-03-23T09:22:08;16.00;99.90
1678;DHT22;6034;46.864;15.216;2023-03-23T09:24:35;15.80;99.90
1678;DHT22;6034;46.864;15.216;2023-03-23T09:27:04;15.60;99.90
1678;DHT22;6034;46.864;15.216;2023-03-23T09:29:32;15.30;99.90
1678;DHT22;6034;46.864;15.216;2023-03-23T09:31:59;15.40;99.90
1678;DHT22;6034;46.864;15.216;2023-03-23T09:34:26;15.20;99.90
1678;DHT22;6034;46.864;15.216;2023-03-23T09:36:56;15.00;99.50
1678;DHT22;6034;46.864;15.216;2023-03-23T09:39:23;14.90;99.10
1678;DHT22;6034;46.864;15.216;2023-03-23T09:42:09;15.10;99.70
1678;DHT22;6034;46.864;15.216;2023-03-23T09:44:46;15.30;98.60
1678;DHT22;6034;46.864;15.216;2023-03-23T09:47:19;15.20;97.50
1678;DHT22;6034;46.864;15.216;2023-03-23T09:49:53;15.30;97.00
1678;DHT22;6034;46.864;15.216;2023-03-23T09:52:22;15.20;95.50
1678;DHT22;6034;46.864;15.216;2023-03-23T09:54:52;15.20;97.20
1678;DHT22;6034;46.864;15.216;2023-03-23T09:57:25;15.50;97.60
1678;DHT22;6034;46.864;15.216;2023-03-23T09:59:59;15.70;97.30
1678;DHT22;6034;46.864;15.216;2023-03-23T10:02:34;16.20;97.30
1678;DHT22;6034;46.864;15.216;2023-03-23T10:05:20;16.50;96.70
1678;DHT22;6034;46.864;15.216;2023-03-23T10:07:49;16.40;96.40
1678;DHT22;6034;46.864;15.216;2023-03-23T10:10:17;17.30;97.10
1678;DHT22;6034;46.864;15.216;2023-03-23T10:12:52;17.20;97.00
1678;DHT22;6034;46.864;15.216;2023-03-23T10:15:26;16.90;95.70
1678;DHT22;6034;46.864;15.216;2023-03-23T10:17:57;17.20;95.00
1678;DHT22;6034;46.864;15.216;2023-03-23T10:20:42;17.10;94.80
1678;DHT22;6034;46.864;15.216;2023-03-23T10:23:35;16.70;94.20
1678;DHT22;6034;46.864;15.216;2023-03-23T10:26:12;17.00;95.40
1678;DHT22;6034;46.864;15.216;2023-03-23T10:28:43;17.30;96.50
1678;DHT22;6034;46.864;15.216;2023-03-23T10:31:14;17.50;95.70
1678;DHT22;6034;46.864;15.216;2023-03-23T10:33:45;17.70;94.70
1678;DHT22;6034;46.864;15.216;2023-03-23T10:36:18;17.40;92.40
1678;DHT22;6034;46.864;15.216;2023-03-23T10:38:49;17.60;92.30
1678;DHT22;6034;46.864;15.216;2023-03-23T10:41:19;17.70;94.10
1678;DHT22;6034;46.864;15.216;2023-03-23T10:43:48;18.00;94.00
1678;DHT22;6034;46.864;15.216;2023-03-23T10:46:24;18.10;92.90
1678;DHT22;6034;46.864;15.216;2023-03-23T10:48:54;18.10;91.60
1678;DHT22;6034;46.864;15.216;2023-03-23T10:51:27;18.10;91.70
1678;DHT22;6034;46.864;15.216;2023-03-23T10:53:58;17.90;91.60
1678;DHT22;6034;46.864;15.216;2023-03-23T10:56:27;18.00;92.40
1678;DHT22;6034;46.864;15.216;2023-03-23T10:58:56;18.40;93.20
1678;DHT22;6034;46.864;15.216;2023-03-23T11:01:30;18.40;91.30
1678;DHT22;6034;46.864;15.216;2023-03-23T11:03:58;18.40;90.90
1678;DHT22;6034;46.864;15.216;2023-03-23T11:06:29;18.30;91.60
1678;DHT22;6034;46.864;15.216;2023-03-23T11:09:02;18.60;91.80
1678;DHT22;6034;46.864;15.216;2023-03-23T11:11:36;18.30;90.00
1678;DHT22;6034;46.864;15.216;2023-03-23T11:14:16;18.00;90.60
1678;DHT22;6034;46.864;15.216;2023-03-23T11:16:49;18.50;91.40
1678;DHT22;6034;46.864;15.216;2023-03-23T11:19:22;18.70;90.70
1678;DHT22;6034;46.864;15.216;2023-03-23T11:21:51;18.80;91.10
1678;DHT22;6034;46.864;15.216;2023-03-23T11:24:22;19.00;89.30
1678;DHT22;6034;46.864;15.216;2023-03-23T11:26:50;18.80;85.60
1678;DHT22;6034;46.864;15.216;2023-03-23T11:29:21;19.20;87.00
1678;DHT22;6034;46.864;15.216;2023-03-23T11:31:53;19.40;89.00
1678;DHT22;6034;46.864;15.216;2023-03-23T11:34:33;19.40;89.50
1678;DHT22;6034;46.864;15.216;2023-03-23T11:37:03;19.30;89.30
1678;DHT22;6034;46.864;15.216;2023-03-23T11:39:33;19.40;88.60
1678;DHT22;6034;46.864;15.216;2023-03-23T11:42:02;19.40;88.10
1678;DHT22;6034;46.864;15.216;2023-03-23T11:44:43;19.60;86.80
1678;DHT22;6034;46.864;15.216;2023-03-23T11:47:17;19.70;88.50
1678;DHT22;6034;46.864;15.216;2023-03-23T11:49:53;19.50;86.70
1678;DHT22;6034;46.864;15.216;2023-03-23T11:52:24;19.20;86.60
1678;DHT22;6034;46.864;15.216;2023-03-23T11:55:02;19.50;88.20
1678;DHT22;6034;46.864;15.216;2023-03-23T11:57:31;18.80;84.20
1678;DHT22;6034;46.864;15.216;2023-03-23T12:00:00;18.60;85.90
1678;DHT22;6034;46.864;15.216;2023-03-23T12:02:39;18.60;90.30
1678;DHT22;6034;46.864;15.216;2023-03-23T12:05:34;18.90;90.00
1678;DHT22;6034;46.864;15.216;2023-03-23T12:08:14;19.00;89.50
1678;DHT22;6034;46.864;15.216;2023-03-23T12:10:50;18.80;85.50
1678;DHT22;6034;46.864;15.216;2023-03-23T12:13:48;18.70;85.50
1678;DHT22;6034;46.864;15.216;2023-03-23T12:16:31;17.10;84.00
1678;DHT22;6034;46.864;15.216;2023-03-23T12:19:05;18.90;86.30
1678;DHT22;6034;46.864;15.216;2023-03-23T12:21:41;19.10;86.60
1678;DHT22;6034;46.864;15.216;2023-03-23T12:24:17;19.00;86.50
1678;DHT22;6034;46.864;15.216;2023-03-23T12:26:50;18.60;85.10
1678;DHT22;6034;46.864;15.216;2023-03-23T12:29:31;18.50;84.30
1678;DHT22;6034;46.864;15.216;2023-03-23T12:32:25;18.60;85.20
1678;DHT22;6034;46.864;15.216;2023-03-23T12:35:03;18.70;86.80
1678;DHT22;6034;46.864;15.216;2023-03-23T12:37:48;18.90;87.80
1678;DHT22;6034;46.864;15.216;2023-03-23T12:43:21;19.10;87.80
1678;DHT22;6034;46.864;15.216;2023-03-23T12:46:17;19.40;88.10
1678;DHT22;6034;46.864;15.216;2023-03-23T12:48:55;19.40;85.40
1678;DHT22;6034;46.864;15.216;2023-03-23T12:51:29;19.50;83.10
1678;DHT22;6034;46.864;15.216;2023-03-23T12:54:03;19.20;82.60
1678;DHT22;6034;46.864;15.216;2023-03-23T12:56:37;19.40;83.50
1678;DHT22;6034;46.864;15.216;2023-03-23T12:59:11;19.50;83.30
1678;DHT22;6034;46.864;15.216;2023-03-23T13:01:43;19.60;84.80
1678;DHT22;6034;46.864;15.216;2023-03-23T13:04:15;19.70;85.30
1678;DHT22;6034;46.864;15.216;2023-03-23T13:06:45;19.80;83.00
1678;DHT22;6034;46.864;15.216;2023-03-23T13:09:17;19.90;85.50
1678;DHT22;6034;46.864;15.216;2023-03-23T13:11:47;19.90;84.20
1678;DHT22;6034;46.864;15.216;2023-03-23T13:14:25;19.90;84.20
1678;DHT22;6034;46.864;15.216;2023-03-23T13:17:00;19.90;84.60
1678;DHT22;6034;46.864;15.216;2023-03-23T13:19:37;20.00;83.80
1678;DHT22;6034;46.864;15.216;2023-03-23T13:22:11;20.10;83.70
1678;DHT22;6034;46.864;15.216;2023-03-23T13:24:43;20.00;84.30
1678;DHT22;6034;46.864;15.216;2023-03-23T13:27:10;20.00;82.20
1678;DHT22;6034;46.864;15.216;2023-03-23T13:29:44;20.00;84.10
1678;DHT22;6034;46.864;15.216;2023-03-23T13:32:16;20.00;83.10
1678;DHT22;6034;46.864;15.216;2023-03-23T13:34:46;20.00;83.70
1678;DHT22;6034;46.864;15.216;2023-03-23T13:37:21;19.80;82.00
1678;DHT22;6034;46.864;15.216;2023-03-23T13:39:52;19.90;82.80
1678;DHT22;6034;46.864;15.216;2023-03-23T13:42:23;20.00;83.60
1678;DHT22;6034;46.864;15.216;2023-03-23T13:45:18;20.00;83.60
1678;DHT22;6034;46.864;15.216;2023-03-23T13:47:49;19.90;80.80
1678;DHT22;6034;46.864;15.216;2023-03-23T13:50:28;20.00;82.30
1678;DHT22;6034;46.864;15.216;2023-03-23T13:52:59;20.00;83.20
1678;DHT22;6034;46.864;15.216;2023-03-23T13:55:40;20.10;82.40
1678;DHT22;6034;46.864;15.216;2023-03-23T13:58:21;20.20;82.10
1678;DHT22;6034;46.864;15.216;2023-03-23T14:01:01;20.10;81.50
1678;DHT22;6034;46.864;15.216;2023-03-23T14:03:36;20.10;82.80
1678;DHT22;6034;46.864;15.216;2023-03-23T14:06:07;20.10;81.80
1678;DHT22;6034;46.864;15.216;2023-03-23T14:08:40;20.10;81.20
1678;DHT22;6034;46.864;15.216;2023-03-23T14:11:14;20.20;80.60
1678;DHT22;6034;46.864;15.216;2023-03-23T14:13:46;20.20;78.90
1678;DHT22;6034;46.864;15.216;2023-03-23T14:16:16;20.20;79.50
1678;DHT22;6034;46.864;15.216;2023-03-23T14:18:51;20.10;79.30
1678;DHT22;6034;46.864;15.216;2023-03-23T14:21:26;20.20;82.40
1678;DHT22;6034;46.864;15.216;2023-03-23T14:24:00;20.10;81.20
1678;DHT22;6034;46.864;15.216;2023-03-23T14:26:28;20.20;82.20
1678;DHT22;6034;46.864;15.216;2023-03-23T14:28:55;20.10;80.90
1678;DHT22;6034;46.864;15.216;2023-03-23T14:31:24;19.90;81.20
1678;DHT22;6034;46.864;15.216;2023-03-23T14:33:53;19.80;80.10
1678;DHT22;6034;46.864;15.216;2023-03-23T14:36:23;19.80;82.20
1678;DHT22;6034;46.864;15.216;2023-03-23T14:39:03;19.60;81.40
1678;DHT22;6034;46.864;15.216;2023-03-23T14:41:34;19.50;81.40
1678;DHT22;6034;46.864;15.216;2023-03-23T14:44:05;19.60;82.40
1678;DHT22;6034;46.864;15.216;2023-03-23T14:46:34;19.70;82.20
1678;DHT22;6034;46.864;15.216;2023-03-23T14:49:02;19.80;82.90
1678;DHT22;6034;46.864;15.216;2023-03-23T14:51:32;19.80;81.50
1678;DHT22;6034;46.864;15.216;2023-03-23T14:54:00;19.80;82.70
1678;DHT22;6034;46.864;15.216;2023-03-23T14:56:34;19.80;82.20
1678;DHT22;6034;46.864;15.216;2023-03-23T14:59:04;19.80;82.20
1678;DHT22;6034;46.864;15.216;2023-03-23T15:01:33;19.90;83.80
1678;DHT22;6034;46.864;15.216;2023-03-23T15:04:03;19.90;83.40
1678;DHT22;6034;46.864;15.216;2023-03-23T15:06:35;19.90;83.70
1678;DHT22;6034;46.864;15.216;2023-03-23T15:09:06;19.90;84.30
1678;DHT22;6034;46.864;15.216;2023-03-23T15:11:36;19.80;82.90
1678;DHT22;6034;46.864;15.216;2023-03-23T15:14:13;19.70;83.50
1678;DHT22;6034;46.864;15.216;2023-03-23T15:16:46;19.70;83.00
1678;DHT22;6034;46.864;15.216;2023-03-23T15:19:17;19.70;83.30
1678;DHT22;6034;46.864;15.216;2023-03-23T15:21:51;19.70;83.10
1678;DHT22;6034;46.864;15.216;2023-03-23T15:24:24;19.70;83.30
1678;DHT22;6034;46.864;15.216;2023-03-23T15:26:53;19.70;84.90
1678;DHT22;6034;46.864;15.216;2023-03-23T15:29:22;19.70;85.80
1678;DHT22;6034;46.864;15.216;2023-03-23T15:31:54;19.70;85.30
1678;DHT22;6034;46.864;15.216;2023-03-23T15:34:30;19.60;85.60
1678;DHT22;6034;46.864;15.216;2023-03-23T15:37:02;19.60;84.40
1678;DHT22;6034;46.864;15.216;2023-03-23T15:39:31;19.50;84.80
1678;DHT22;6034;46.864;15.216;2023-03-23T15:42:00;19.50;85.70
1678;DHT22;6034;46.864;15.216;2023-03-23T15:44:33;19.50;85.80
1678;DHT22;6034;46.864;15.216;2023-03-23T15:47:14;19.60;85.70
1678;DHT22;6034;46.864;15.216;2023-03-23T15:49:43;19.40;85.50
1678;DHT22;6034;46.864;15.216;2023-03-23T15:52:14;19.30;85.30
1678;DHT22;6034;46.864;15.216;2023-03-23T15:54:48;19.40;86.80
1678;DHT22;6034;46.864;15.216;2023-03-23T15:57:15;19.30;87.20
1678;DHT22;6034;46.864;15.216;2023-03-23T15:59:43;19.30;88.00
1678;DHT22;6034;46.864;15.216;2023-03-23T16:02:18;19.20;86.40
1678;DHT22;6034;46.864;15.216;2023-03-23T16:04:47;19.20;86.60
1678;DHT22;6034;46.864;15.216;2023-03-23T16:07:17;19.20;87.60
1678;DHT22;6034;46.864;15.216;2023-03-23T16:09:47;19.30;88.70
1678;DHT22;6034;46.864;15.216;2023-03-23T16:12:14;19.20;87.90
1678;DHT22;6034;46.864;15.216;2023-03-23T16:14:42;19.20;88.00
1678;DHT22;6034;46.864;15.216;2023-03-23T16:17:11;19.30;88.30
1678;DHT22;6034;46.864;15.216;2023-03-23T16:19:40;19.20;88.20
1678;DHT22;6034;46.864;15.216;2023-03-23T16:22:08;19.20;88.70
1678;DHT22;6034;46.864;15.216;2023-03-23T16:24:37;19.10;88.60
1678;DHT22;6034;46.864;15.216;2023-03-23T16:27:04;19.00;88.90
1678;DHT22;6034;46.864;15.216;2023-03-23T16:29:32;19.10;89.50
1678;DHT22;6034;46.864;15.216;2023-03-23T16:31:59;19.00;89.40
1678;DHT22;6034;46.864;15.216;2023-03-23T16:34:26;19.00;89.50
1678;DHT22;6034;46.864;15.216;2023-03-23T16:36:58;18.90;89.60
1678;DHT22;6034;46.864;15.216;2023-03-23T16:39:25;18.90;89.60
1678;DHT22;6034;46.864;15.216;2023-03-23T16:41:54;18.80;89.60
1678;DHT22;6034;46.864;15.216;2023-03-23T16:44:21;18.80;89.60
1678;DHT22;6034;46.864;15.216;2023-03-23T16:46:49;18.80;89.80
1678;DHT22;6034;46.864;15.216;2023-03-23T16:49:16;18.70;90.10
1678;DHT22;6034;46.864;15.216;2023-03-23T16:51:43;18.70;90.10
1678;DHT22;6034;46.864;15.216;2023-03-23T16:54:11;18.70;90.10
1678;DHT22;6034;46.864;15.216;2023-03-23T16:56:38;18.60;90.00
1678;DHT22;6034;46.864;15.216;2023-03-23T16:59:07;18.60;90.50
1678;DHT22;6034;46.864;15.216;2023-03-23T17:01:34;18.50;90.50
1678;DHT22;6034;46.864;15.216;2023-03-23T17:04:02;18.50;91.10
1678;DHT22;6034;46.864;15.216;2023-03-23T17:06:30;18.40;90.80
1678;DHT22;6034;46.864;15.216;2023-03-23T17:08:58;18.30;90.60
1678;DHT22;6034;46.864;15.216;2023-03-23T17:11:25;18.30;90.70
1678;DHT22;6034;46.864;15.216;2023-03-23T17:13:53;18.10;91.50
1678;DHT22;6034;46.864;15.216;2023-03-23T17:16:22;18.00;91.30
1678;DHT22;6034;46.864;15.216;2023-03-23T17:18:50;18.00;91.20
1678;DHT22;6034;46.864;15.216;2023-03-23T17:21:19;18.00;91.30
1678;DHT22;6034;46.864;15.216;2023-03-23T17:23:50;18.00;91.30
1678;DHT22;6034;46.864;15.216;2023-03-23T17:26:18;18.00;91.20
1678;DHT22;6034;46.864;15.216;2023-03-23T17:28:46;17.90;91.20
1678;DHT22;6034;46.864;15.216;2023-03-23T17:31:14;17.90;91.30
1678;DHT22;6034;46.864;15.216;2023-03-23T17:33:42;17.80;91.80
1678;DHT22;6034;46.864;15.216;2023-03-23T17:36:10;17.70;91.00
1678;DHT22;6034;46.864;15.216;2023-03-23T17:38:38;17.70;91.40
1678;DHT22;6034;46.864;15.216;2023-03-23T17:41:06;17.70;91.40
1678;DHT22;6034;46.864;15.216;2023-03-23T17:43:37;17.70;91.40
1678;DHT22;6034;46.864;15.216;2023-03-23T17:46:07;17.50;92.20
1678;DHT22;6034;46.864;15.216;2023-03-23T17:48:35;17.50;92.10
1678;DHT22;6034;46.864;15.216;2023-03-23T17:51:05;17.50;91.80
1678;DHT22;6034;46.864;15.216;2023-03-23T17:53:33;17.50;91.60
1678;DHT22;6034;46.864;15.216;2023-03-23T17:56:03;17.50;91.60
1678;DHT22;6034;46.864;15.216;2023-03-23T17:58:32;17.40;91.30
1678;DHT22;6034;46.864;15.216;2023-03-23T18:01:02;17.50;91.70
1678;DHT22;6034;46.864;15.216;2023-03-23T18:03:31;17.40;91.90
1678;DHT22;6034;46.864;15.216;2023-03-23T18:06:02;17.30;91.80
1678;DHT22;6034;46.864;15.216;2023-03-23T18:08:33;17.40;91.90
1678;DHT22;6034;46.864;15.216;2023-03-23T18:11:02;17.40;91.80
1678;DHT22;6034;46.864;15.216;2023-03-23T18:13:33;17.30;91.90
1678;DHT22;6034;46.864;15.216;2023-03-23T18:16:02;17.30;92.00
1678;DHT22;6034;46.864;15.216;2023-03-23T18:18:30;17.30;92.00
1678;DHT22;6034;46.864;15.216;2023-03-23T18:21:04;17.30;92.00
1678;DHT22;6034;46.864;15.216;2023-03-23T18:23:35;17.30;92.00
1678;DHT22;6034;46.864;15.216;2023-03-23T18:26:05;17.30;92.00
1678;DHT22;6034;46.864;15.216;2023-03-23T18:28:35;17.10;92.20
1678;DHT22;6034;46.864;15.216;2023-03-23T18:31:04;17.10;92.40
1678;DHT22;6034;46.864;15.216;2023-03-23T18:33:33;16.90;92.40
1678;DHT22;6034;46.864;15.216;2023-03-23T18:36:04;17.00;92.40
1678;DHT22;6034;46.864;15.216;2023-03-23T18:38:35;17.00;92.60
1678;DHT22;6034;46.864;15.216;2023-03-23T18:41:06;17.00;92.50
1678;DHT22;6034;46.864;15.216;2023-03-23T18:43:34;17.10;92.40
1678;DHT22;6034;46.864;15.216;2023-03-23T18:46:07;17.00;92.40
1678;DHT22;6034;46.864;15.216;2023-03-23T18:48:40;17.00;92.50
1678;DHT22;6034;46.864;15.216;2023-03-23T18:51:08;16.90;92.50
1678;DHT22;6034;46.864;15.216;2023-03-23T18:53:39;16.90;92.80
1678;DHT22;6034;46.864;15.216;2023-03-23T18:56:09;16.80;92.90
1678;DHT22;6034;46.864;15.216;2023-03-23T18:58:38;16.80;93.10
1678;DHT22;6034;46.864;15.216;2023-03-23T19:01:08;16.80;93.60
1678;DHT22;6034;46.864;15.216;2023-03-23T19:03:37;16.60;93.40
1678;DHT22;6034;46.864;15.216;2023-03-23T19:06:16;16.60;93.40
1678;DHT22;6034;46.864;15.216;2023-03-23T19:08:46;16.60;93.30
1678;DHT22;6034;46.864;15.216;2023-03-23T19:11:15;16.60;93.40
1678;DHT22;6034;46.864;15.216;2023-03-23T19:13:43;16.60;93.20
1678;DHT22;6034;46.864;15.216;2023-03-23T19:16:12;16.40;93.10
1678;DHT22;6034;46.864;15.216;2023-03-23T19:18:40;16.50;93.40
1678;DHT22;6034;46.864;15.216;2023-03-23T19:21:08;16.60;93.20
1678;DHT22;6034;46.864;15.216;2023-03-23T19:23:37;16.60;93.10
1678;DHT22;6034;46.864;15.216;2023-03-23T19:26:06;16.60;93.00
1678;DHT22;6034;46.864;15.216;2023-03-23T19:28:35;16.60;93.10
1678;DHT22;6034;46.864;15.216;2023-03-23T19:31:03;16.60;93.10
1678;DHT22;6034;46.864;15.216;2023-03-23T19:33:32;16.50;93.20
1678;DHT22;6034;46.864;15.216;2023-03-23T19:36:01;16.40;93.40
1678;DHT22;6034;46.864;15.216;2023-03-23T19:38:29;16.40;93.40
1678;DHT22;6034;46.864;15.216;2023-03-23T19:40:59;16.40;93.40
1678;DHT22;6034;46.864;15.216;2023-03-23T19:43:29;16.40;93.30
1678;DHT22;6034;46.864;15.216;2023-03-23T19:45:58;16.50;93.20
1678;DHT22;6034;46.864;15.216;2023-03-23T19:48:27;16.40;93.20
1678;DHT22;6034;46.864;15.216;2023-03-23T19:50:57;16.40;93.30
1678;DHT22;6034;46.864;15.216;2023-03-23T19:53:25;16.40;93.40
1678;DHT22;6034;46.864;15.216;2023-03-23T19:55:53;16.30;93.60
1678;DHT22;6034;46.864;15.216;2023-03-23T19:58:22;16.30;93.80
1678;DHT22;6034;46.864;15.216;2023-03-23T20:00:54;16.20;93.80
1678;DHT22;6034;46.864;15.216;2023-03-23T20:03:23;16.10;93.70
1678;DHT22;6034;46.864;15.216;2023-03-23T20:05:52;16.00;93.90
1678;DHT22;6034;46.864;15.216;2023-03-23T20:08:26;16.10;93.80
1678;DHT22;6034;46.864;15.216;2023-03-23T20:11:01;16.00;93.70
1678;DHT22;6034;46.864;15.216;2023-03-23T20:13:30;16.00;93.60
1678;DHT22;6034;46.864;15.216;2023-03-23T20:16:01;16.10;93.60
1678;DHT22;6034;46.864;15.216;2023-03-23T20:18:30;16.10;93.50
1678;DHT22;6034;46.864;15.216;2023-03-23T20:21:03;16.20;93.50
1678;DHT22;6034;46.864;15.216;2023-03-23T20:23:33;16.20;93.30
1678;DHT22;6034;46.864;15.216;2023-03-23T20:26:03;16.20;93.30
1678;DHT22;6034;46.864;15.216;2023-03-23T20:28:32;16.20;93.30
1678;DHT22;6034;46.864;15.216;2023-03-23T20:31:05;16.20;93.20
1678;DHT22;6034;46.864;15.216;2023-03-23T20:33:34;16.20;93.20
1678;DHT22;6034;46.864;15.216;2023-03-23T20:36:03;16.20;93.10
1678;DHT22;6034;46.864;15.216;2023-03-23T20:38:34;16.20;93.10
1678;DHT22;6034;46.864;15.216;2023-03-23T20:41:05;16.20;93.30
1678;DHT22;6034;46.864;15.216;2023-03-23T20:43:37;16.10;93.10
1678;DHT22;6034;46.864;15.216;2023-03-23T20:46:10;16.10;93.50
1678;DHT22;6034;46.864;15.216;2023-03-23T20:48:40;15.90;93.90
1678;DHT22;6034;46.864;15.216;2023-03-23T20:51:09;15.90;93.90
1678;DHT22;6034;46.864;15.216;2023-03-23T20:53:38;15.90;93.90
1678;DHT22;6034;46.864;15.216;2023-03-23T20:56:07;15.80;93.60
1678;DHT22;6034;46.864;15.216;2023-03-23T20:58:37;15.90;93.60
1678;DHT22;6034;46.864;15.216;2023-03-23T21:01:05;15.90;93.50
1678;DHT22;6034;46.864;15.216;2023-03-23T21:03:39;15.80;93.60
1678;DHT22;6034;46.864;15.216;2023-03-23T21:06:10;15.70;93.70
1678;DHT22;6034;46.864;15.216;2023-03-23T21:08:39;15.60;93.50
1678;DHT22;6034;46.864;15.216;2023-03-23T21:11:10;15.70;93.70
1678;DHT22;6034;46.864;15.216;2023-03-23T21:13:40;15.70;93.50
1678;DHT22;6034;46.864;15.216;2023-03-23T21:16:08;15.60;93.70
1678;DHT22;6034;46.864;15.216;2023-03-23T21:18:37;15.70;93.80
1678;DHT22;6034;46.864;15.216;2023-03-23T21:21:05;15.60;93.80
1678;DHT22;6034;46.864;15.216;2023-03-23T21:23:37;15.60;93.80
1678;DHT22;6034;46.864;15.216;2023-03-23T21:26:12;15.50;94.30
1678;DHT22;6034;46.864;15.216;2023-03-23T21:28:40;15.50;94.30
1678;DHT22;6034;46.864;15.216;2023-03-23T21:31:09;15.40;94.20
1678;DHT22;6034;46.864;15.216;2023-03-23T21:33:38;15.30;94.50
1678;DHT22;6034;46.864;15.216;2023-03-23T21:36:06;15.30;94.60
1678;DHT22;6034;46.864;15.216;2023-03-23T21:38:34;15.30;94.60
1678;DHT22;6034;46.864;15.216;2023-03-23T21:41:06;15.30;94.50
1678;DHT22;6034;46.864;15.216;2023-03-23T21:43:34;15.30;94.50
1678;DHT22;6034;46.864;15.216;2023-03-23T21:46:04;15.20;94.70
1678;DHT22;6034;46.864;15.216;2023-03-23T21:48:34;15.20;94.90
1678;DHT22;6034;46.864;15.216;2023-03-23T21:51:06;15.20;94.70
1678;DHT22;6034;46.864;15.216;2023-03-23T21:53:35;15.10;94.80
1678;DHT22;6034;46.864;15.216;2023-03-23T21:56:03;15.10;94.80
1678;DHT22;6034;46.864;15.216;2023-03-23T21:58:32;15.00;94.90
1678;DHT22;6034;46.864;15.216;2023-03-23T22:00:59;15.00;95.10
1678;DHT22;6034;46.864;15.216;2023-03-23T22:03:27;14.90;95.10
1678;DHT22;6034;46.864;15.216;2023-03-23T22:06:04;14.80;95.20
1678;DHT22;6034;46.864;15.216;2023-03-23T22:08:37;14.80;95.60
1678;DHT22;6034;46.864;15.216;2023-03-23T22:11:06;14.70;95.40
1678;DHT22;6034;46.864;15.216;2023-03-23T22:13:35;14.60;95.40